createdAt,value
2018-12-05T00:02:00.054Z,7.50
2018-12-05T00:04:28.143Z,11.77
2018-12-05T00:06:55.611Z,9.23
2018-12-05T00:09:23.308Z,8.40
2018-12-05T00:11:51.044Z,9.47
2018-12-05T00:14:18.560Z,10.03
2018-12-05T00:16:46.190Z,15.00
2018-12-05T00:19:13.816Z,13.40
2018-12-05T00:21:41.425Z,8.17
2018-12-05T00:24:09.067Z,7.30
2018-12-05T00:26:37.256Z,9.57
2018-12-05T00:29:04.737Z,8.87
2018-12-05T00:31:32.235Z,13.27
2018-12-05T00:34:00.262Z,11.73
2018-12-05T00:36:27.683Z,12.80
2018-12-05T00:38:55.829Z,12.73
2018-12-05T00:41:23.516Z,9.80
2018-12-05T00:43:51.222Z,10.17
2018-12-05T00:46:18.691Z,12.17
2018-12-05T00:48:46.329Z,11.23
2018-12-05T00:51:13.998Z,7.63
2018-12-05T00:53:41.527Z,10.00
2018-12-05T00:56:09.236Z,5.83
2018-12-05T00:58:36.722Z,8.23
2018-12-05T01:01:04.474Z,8.83
2018-12-05T01:03:32.103Z,6.93
2018-12-05T01:05:59.595Z,11.03
2018-12-05T01:08:27.244Z,9.27
2018-12-05T01:10:54.737Z,11.97
2018-12-05T01:13:22.446Z,9.47
2018-12-05T01:15:50.620Z,6.77
2018-12-05T01:18:18.264Z,15.60
2018-12-05T01:20:45.773Z,19.23
2018-12-05T01:23:13.323Z,12.87
2018-12-05T01:25:40.717Z,8.50
2018-12-05T01:28:08.223Z,10.37
2018-12-05T01:30:35.677Z,14.60
2018-12-05T01:33:03.192Z,8.43
2018-12-05T01:35:30.758Z,7.83
2018-12-05T01:37:58.313Z,12.53
2018-12-05T01:40:26.549Z,10.77
2018-12-05T01:42:53.959Z,8.03
2018-12-05T01:45:21.475Z,10.23
2018-12-05T01:47:49.061Z,13.73
2018-12-05T01:50:16.701Z,8.53
2018-12-05T01:52:44.280Z,9.20
2018-12-05T01:55:12.293Z,8.67
2018-12-05T01:57:39.829Z,8.03
2018-12-05T02:00:07.499Z,11.53
2018-12-05T02:02:35.055Z,7.60
2018-12-05T02:05:02.862Z,10.53
2018-12-05T02:07:31.051Z,13.03
2018-12-05T02:09:58.699Z,11.03
2018-12-05T02:12:27.230Z,8.17
2018-12-05T02:14:54.751Z,6.57
2018-12-05T02:17:22.150Z,13.80
2018-12-05T02:19:49.619Z,11.43
2018-12-05T02:22:17.283Z,6.97
2018-12-05T02:24:47.101Z,7.47
2018-12-05T02:27:17.078Z,11.47
2018-12-05T02:29:50.301Z,10.03
2018-12-05T02:32:17.825Z,5.40
2018-12-05T02:34:45.450Z,6.53
2018-12-05T02:37:12.909Z,8.53
2018-12-05T02:39:40.618Z,17.80
2018-12-05T02:42:08.032Z,30.17
2018-12-05T02:44:35.481Z,22.40
2018-12-05T02:47:03.940Z,17.30
2018-12-05T02:49:31.335Z,10.40
2018-12-05T02:52:00.710Z,5.43
2018-12-05T02:54:28.482Z,8.73
2018-12-05T02:56:55.933Z,11.47
2018-12-05T02:59:23.359Z,14.10
2018-12-05T03:01:51.552Z,9.60
2018-12-05T03:04:19.593Z,14.63
2018-12-05T03:06:47.100Z,8.50
2018-12-05T03:09:14.536Z,8.80
2018-12-05T03:11:42.051Z,13.90
2018-12-05T03:14:09.534Z,15.80
2018-12-05T03:16:37.721Z,12.70
2018-12-05T03:19:05.210Z,15.60
2018-12-05T03:21:32.614Z,9.00
2018-12-05T03:24:00.019Z,8.90
2018-12-05T03:26:27.570Z,17.67
2018-12-05T03:28:55.008Z,9.40
2018-12-05T03:31:22.477Z,10.07
2018-12-05T03:33:49.919Z,10.77
2018-12-05T03:36:17.574Z,6.73
2018-12-05T03:38:45.119Z,11.80
2018-12-05T03:41:13.173Z,15.73
2018-12-05T03:43:40.747Z,13.80
2018-12-05T03:46:09.308Z,11.30
2018-12-05T03:48:36.702Z,6.60
2018-12-05T03:51:04.807Z,8.77
2018-12-05T03:53:32.447Z,11.43
2018-12-05T03:55:59.890Z,14.20
2018-12-05T03:58:28.052Z,10.17
2018-12-05T04:00:55.443Z,9.30
2018-12-05T04:03:23.034Z,13.30
2018-12-05T04:05:51.510Z,14.43
2018-12-05T04:08:19.695Z,10.20
2018-12-05T04:10:47.224Z,8.50
2018-12-05T04:13:14.849Z,15.47
2018-12-05T04:15:42.299Z,20.10
2018-12-05T04:18:09.892Z,19.10
2018-12-05T04:20:37.447Z,20.47
2018-12-05T04:24:29.354Z,12.77
2018-12-05T04:26:56.803Z,9.73
2018-12-05T04:29:24.325Z,6.07
2018-12-05T04:31:51.939Z,9.60
2018-12-05T04:34:19.340Z,7.53
2018-12-05T04:36:46.823Z,11.30
2018-12-05T04:39:14.454Z,6.47
2018-12-05T04:41:41.972Z,14.50
2018-12-05T04:44:09.938Z,9.27
2018-12-05T04:46:37.407Z,8.47
2018-12-05T04:49:05.113Z,13.33
2018-12-05T04:51:32.561Z,9.73
2018-12-05T04:54:00.911Z,13.97
2018-12-05T04:56:28.377Z,9.97
2018-12-05T04:58:55.813Z,17.57
2018-12-05T05:01:23.412Z,13.00
2018-12-05T05:03:50.837Z,13.60
2018-12-05T05:06:18.412Z,20.10
2018-12-05T05:08:45.916Z,8.97
2018-12-05T05:11:13.457Z,9.07
2018-12-05T05:13:41.371Z,7.97
2018-12-05T05:16:08.864Z,9.23
2018-12-05T05:20:02.723Z,10.73
2018-12-05T05:22:30.343Z,12.20
2018-12-05T05:24:58.054Z,8.87
2018-12-05T05:27:25.660Z,10.37
2018-12-05T05:29:53.041Z,8.60
2018-12-05T05:32:20.572Z,18.53
2018-12-05T05:34:48.318Z,15.03
2018-12-05T05:37:15.885Z,13.63
2018-12-05T05:39:43.423Z,12.47
2018-12-05T05:42:11.704Z,12.67
2018-12-05T05:44:40.048Z,11.33
2018-12-05T05:47:07.513Z,12.43
2018-12-05T05:49:35.058Z,11.10
2018-12-05T05:52:03.312Z,16.03
2018-12-05T05:54:30.780Z,12.43
2018-12-05T05:56:58.285Z,24.73
2018-12-05T05:59:26.390Z,10.30
2018-12-05T06:01:54.131Z,14.87
2018-12-05T06:04:21.700Z,17.00
2018-12-05T06:06:49.219Z,13.90
2018-12-05T06:09:16.620Z,18.47
2018-12-05T06:11:44.052Z,18.50
2018-12-05T06:14:11.540Z,20.70
2018-12-05T06:16:39.764Z,13.50
2018-12-05T06:19:07.330Z,13.07
2018-12-05T06:21:34.863Z,10.20
2018-12-05T06:24:02.407Z,11.60
2018-12-05T06:26:29.940Z,12.40
2018-12-05T06:28:57.455Z,14.33
2018-12-05T06:31:25.827Z,13.23
2018-12-05T06:33:53.888Z,10.17
2018-12-05T06:36:22.226Z,13.27
2018-12-05T06:38:50.452Z,16.67
2018-12-05T06:41:18.002Z,17.90
2018-12-05T06:43:46.107Z,15.37
2018-12-05T06:46:13.591Z,18.13
2018-12-05T06:48:41.190Z,12.60
2018-12-05T06:51:08.605Z,16.57
2018-12-05T06:53:36.179Z,15.90
2018-12-05T06:56:03.806Z,12.77
2018-12-05T06:58:31.596Z,10.17
2018-12-05T07:00:59.127Z,19.17
2018-12-05T07:03:27.023Z,18.03
2018-12-05T07:05:55.043Z,15.30
2018-12-05T07:08:22.531Z,11.53
2018-12-05T07:10:51.135Z,17.87
2018-12-05T07:13:18.670Z,21.13
2018-12-05T07:15:46.436Z,17.20
2018-12-05T07:18:15.073Z,15.30
2018-12-05T07:20:42.498Z,13.00
2018-12-05T07:23:09.995Z,15.07
2018-12-05T07:25:37.592Z,13.70
2018-12-05T07:28:05.095Z,15.37
2018-12-05T07:30:33.567Z,15.00
2018-12-05T07:33:01.079Z,16.53
2018-12-05T07:35:28.852Z,12.63
2018-12-05T07:37:57.410Z,14.33
2018-12-05T07:40:25.658Z,13.63
2018-12-05T07:42:53.731Z,15.90
2018-12-05T07:45:21.241Z,20.73
2018-12-05T07:47:48.819Z,17.90
2018-12-05T07:50:16.331Z,14.90
2018-12-05T07:52:44.134Z,21.97
2018-12-05T07:55:11.797Z,14.57
2018-12-05T07:57:39.378Z,13.53
2018-12-05T08:00:07.860Z,17.83
2018-12-05T08:02:35.527Z,14.50
2018-12-05T08:05:03.162Z,14.53
2018-12-05T08:07:31.341Z,9.93
2018-12-05T08:09:58.935Z,13.83
2018-12-05T08:12:26.561Z,12.00
2018-12-05T08:14:53.961Z,17.80
2018-12-05T08:17:22.450Z,14.70
2018-12-05T08:19:49.932Z,15.83
2018-12-05T08:22:20.695Z,14.17
2018-12-05T08:24:48.403Z,14.43
2018-12-05T08:27:15.912Z,19.20
2018-12-05T08:29:44.071Z,13.80
2018-12-05T08:32:11.631Z,18.60
2018-12-05T08:34:39.294Z,16.97
2018-12-05T08:37:06.824Z,15.00
2018-12-05T08:39:34.324Z,16.07
2018-12-05T08:42:03.925Z,14.03
2018-12-05T08:44:32.441Z,13.53
2018-12-05T08:46:59.951Z,12.30
2018-12-05T08:49:27.468Z,11.50
2018-12-05T08:51:55.081Z,13.37
2018-12-05T08:54:22.659Z,14.43
2018-12-05T08:56:50.584Z,15.53
2018-12-05T08:59:18.153Z,15.67
2018-12-05T09:01:45.855Z,13.40
2018-12-05T09:04:13.339Z,15.03
2018-12-05T09:06:40.868Z,15.90
2018-12-05T09:09:08.881Z,18.90
2018-12-05T09:11:37.482Z,15.53
2018-12-05T09:14:05.271Z,16.87
2018-12-05T09:16:32.745Z,11.80
2018-12-05T09:19:00.428Z,14.03
2018-12-05T09:21:28.049Z,15.57
2018-12-05T09:23:56.401Z,17.90
2018-12-05T09:26:23.808Z,12.83
2018-12-05T09:28:57.201Z,17.23
2018-12-05T09:31:20.766Z,13.10
2018-12-05T09:33:48.190Z,14.50
2018-12-05T09:36:15.771Z,14.57
2018-12-05T09:38:43.366Z,13.87
2018-12-05T09:41:10.878Z,14.53
2018-12-05T09:43:38.244Z,22.43
2018-12-05T09:46:05.770Z,15.67
2018-12-05T09:48:33.994Z,20.00
2018-12-05T09:51:01.456Z,15.93
2018-12-05T09:53:29.611Z,16.63
2018-12-05T09:55:57.346Z,19.70
2018-12-05T09:58:24.995Z,15.13
2018-12-05T10:00:52.506Z,17.27
2018-12-05T10:03:20.012Z,13.30
2018-12-05T10:05:47.469Z,9.60
2018-12-05T10:08:14.970Z,17.17
2018-12-05T10:10:42.458Z,14.73
2018-12-05T10:13:09.910Z,13.47
2018-12-05T10:15:37.448Z,12.90
2018-12-05T10:18:05.019Z,12.70
2018-12-05T10:20:32.649Z,8.13
2018-12-05T10:23:00.224Z,16.87
2018-12-05T10:25:27.798Z,13.20
2018-12-05T10:27:55.267Z,11.30
2018-12-05T10:30:22.803Z,10.47
2018-12-05T10:32:51.181Z,15.27
2018-12-05T10:35:18.867Z,12.20
2018-12-05T10:37:46.984Z,14.20
2018-12-05T10:40:15.097Z,15.70
2018-12-05T10:42:42.672Z,11.70
2018-12-05T10:45:10.291Z,17.73
2018-12-05T10:47:37.858Z,20.53
2018-12-05T10:50:06.663Z,16.53
2018-12-05T10:52:34.134Z,15.73
2018-12-05T10:55:01.614Z,8.53
2018-12-05T10:57:29.200Z,10.80
2018-12-05T10:59:57.713Z,10.10
2018-12-05T11:02:30.810Z,14.27
2018-12-05T11:05:03.978Z,18.00
2018-12-05T11:07:37.040Z,19.17
2018-12-05T11:10:10.916Z,8.53
2018-12-05T11:13:43.926Z,11.63
2018-12-05T11:16:17.240Z,12.40
2018-12-05T11:19:52.454Z,11.30
2018-12-05T11:22:25.611Z,12.53
2018-12-05T11:24:58.322Z,13.10
2018-12-05T11:28:50.543Z,15.83
2018-12-05T11:31:18.037Z,12.70
2018-12-05T11:33:45.509Z,19.00
2018-12-05T11:36:13.061Z,13.53
2018-12-05T11:38:40.474Z,14.30
2018-12-05T11:41:07.981Z,18.50
2018-12-05T11:43:35.460Z,11.00
2018-12-05T11:46:03.097Z,14.80
2018-12-05T11:48:31.515Z,14.30
2018-12-05T11:50:59.059Z,14.30
2018-12-05T11:53:26.526Z,13.20
2018-12-05T11:55:54.075Z,17.07
2018-12-05T11:58:21.778Z,17.97
2018-12-05T12:00:49.410Z,14.33
2018-12-05T12:03:17.572Z,15.47
2018-12-05T12:05:45.124Z,15.77
2018-12-05T12:08:12.513Z,17.90
2018-12-05T12:10:40.744Z,19.70
2018-12-05T12:13:09.132Z,16.30
2018-12-05T12:15:36.931Z,15.27
2018-12-05T12:18:05.113Z,12.40
2018-12-05T12:20:32.892Z,26.73
2018-12-05T12:23:00.341Z,19.37
2018-12-05T12:25:28.647Z,20.70
2018-12-05T12:27:56.110Z,25.50
2018-12-05T12:30:23.550Z,49.03
2018-12-05T12:32:51.119Z,22.53
2018-12-05T12:35:19.319Z,13.90
2018-12-05T12:37:46.761Z,15.60
2018-12-05T12:40:14.817Z,13.50
2018-12-05T12:42:42.312Z,18.40
2018-12-05T12:45:10.022Z,15.77
2018-12-05T12:47:37.586Z,19.80
2018-12-05T12:50:06.007Z,17.60
2018-12-05T12:52:34.140Z,14.70
2018-12-05T12:55:01.887Z,19.43
2018-12-05T12:57:30.123Z,22.90
2018-12-05T12:59:57.693Z,16.87
2018-12-05T13:02:25.492Z,16.13
2018-12-05T13:04:53.193Z,17.07
2018-12-05T13:07:20.678Z,16.17
2018-12-05T13:09:48.828Z,15.30
2018-12-05T13:12:51.604Z,15.07
2018-12-05T13:15:19.045Z,18.50
2018-12-05T13:17:46.820Z,15.73
2018-12-05T13:20:14.979Z,19.20
2018-12-05T13:22:42.511Z,15.27
2018-12-05T13:25:10.019Z,16.57
2018-12-05T13:27:37.478Z,24.40
2018-12-05T13:30:05.467Z,17.00
2018-12-05T13:32:33.728Z,18.40
2018-12-05T13:35:01.577Z,13.70
2018-12-05T13:37:29.128Z,13.60
2018-12-05T13:39:56.697Z,19.20
2018-12-05T13:42:24.621Z,16.53
2018-12-05T13:44:52.137Z,16.57
2018-12-05T13:47:19.617Z,15.13
2018-12-05T13:49:47.850Z,21.03
2018-12-05T13:52:15.583Z,19.40
2018-12-05T13:54:43.219Z,16.60
2018-12-05T13:57:10.812Z,22.30
2018-12-05T13:59:39.065Z,27.23
2018-12-05T14:02:07.692Z,20.40
2018-12-05T14:04:35.752Z,27.37
2018-12-05T14:07:03.171Z,29.90
2018-12-05T14:09:30.844Z,40.97
2018-12-05T14:11:58.271Z,49.10
2018-12-05T14:14:25.756Z,21.83
2018-12-05T14:16:53.481Z,21.63
2018-12-05T14:19:21.212Z,19.73
2018-12-05T14:21:48.822Z,21.77
2018-12-05T14:24:16.249Z,14.33
2018-12-05T14:26:44.910Z,16.53
2018-12-05T14:29:13.292Z,20.80
2018-12-05T14:31:40.931Z,19.63
2018-12-05T14:34:09.055Z,26.53
2018-12-05T14:36:36.761Z,19.93
2018-12-05T14:39:06.385Z,15.83
2018-12-05T14:41:33.864Z,20.77
2018-12-05T14:44:01.388Z,23.73
2018-12-05T14:46:28.859Z,18.97
2018-12-05T14:48:57.082Z,21.03
2018-12-05T14:51:25.115Z,18.17
2018-12-05T14:53:53.431Z,20.43
2018-12-05T14:56:20.945Z,19.70
2018-12-05T14:58:48.522Z,18.73
2018-12-05T15:01:16.030Z,18.90
2018-12-05T15:03:43.543Z,21.10
2018-12-05T15:19:15.775Z,15.80
2018-12-05T15:21:44.132Z,15.90
2018-12-05T15:24:12.641Z,17.93
2018-12-05T15:26:40.472Z,20.90
2018-12-05T15:29:08.208Z,19.20
2018-12-05T15:31:37.292Z,20.20
2018-12-05T15:34:05.502Z,18.43
2018-12-05T15:36:33.103Z,26.07
2018-12-05T15:39:00.859Z,25.67
2018-12-05T15:41:28.486Z,18.07
2018-12-05T15:43:56.654Z,23.30
2018-12-05T15:46:24.180Z,18.73
2018-12-05T15:48:51.758Z,16.90
2018-12-05T15:51:19.436Z,19.60
2018-12-05T15:53:46.896Z,20.43
2018-12-05T15:56:14.422Z,25.30
2018-12-05T15:58:42.914Z,17.60
2018-12-05T16:01:11.815Z,19.37
2018-12-05T16:03:43.092Z,19.87
2018-12-05T16:06:09.872Z,27.20
2018-12-05T16:08:37.379Z,27.93
2018-12-05T16:11:05.064Z,17.20
2018-12-05T16:13:32.738Z,24.93
2018-12-05T16:16:00.312Z,22.77
2018-12-05T16:18:28.431Z,18.27
2018-12-05T16:20:55.930Z,19.67
2018-12-05T16:23:23.456Z,20.20
2018-12-05T16:25:51.066Z,21.13
2018-12-05T16:28:18.659Z,19.30
2018-12-05T16:30:46.285Z,20.63
2018-12-05T16:33:13.817Z,28.47
2018-12-05T16:35:41.290Z,24.73
2018-12-05T16:38:08.775Z,23.60
2018-12-05T16:40:36.279Z,24.80
2018-12-05T16:43:03.799Z,20.40
2018-12-05T16:45:31.561Z,25.93
2018-12-05T16:47:59.113Z,15.43
2018-12-05T16:50:26.658Z,17.73
2018-12-05T16:52:54.212Z,20.30
2018-12-05T16:55:21.733Z,24.10
2018-12-05T16:57:49.410Z,22.33
2018-12-05T17:00:17.035Z,23.00
2018-12-05T17:02:45.109Z,25.23
2018-12-05T17:05:12.804Z,17.63
2018-12-05T17:07:40.425Z,23.53
2018-12-05T17:10:10.138Z,21.40
2018-12-05T17:12:37.682Z,17.57
2018-12-05T17:15:05.742Z,18.53
2018-12-05T17:17:33.324Z,20.13
2018-12-05T17:20:01.846Z,24.90
2018-12-05T17:22:30.759Z,22.23
2018-12-05T17:24:58.376Z,24.17
2018-12-05T17:27:26.558Z,24.10
2018-12-05T17:29:54.212Z,20.07
2018-12-05T17:32:21.975Z,19.57
2018-12-05T17:34:49.507Z,17.80
2018-12-05T17:37:17.042Z,22.73
2018-12-05T17:39:44.753Z,20.70
2018-12-05T17:42:12.530Z,21.33
2018-12-05T17:44:40.195Z,19.70
2018-12-05T17:47:07.663Z,19.73
2018-12-05T17:49:35.481Z,18.93
2018-12-05T17:52:02.992Z,19.87
2018-12-05T17:54:31.540Z,22.03
2018-12-05T17:56:59.121Z,22.87
2018-12-05T17:59:26.851Z,23.30
2018-12-05T18:01:54.417Z,21.00
2018-12-05T18:04:21.932Z,27.03
2018-12-05T18:06:49.549Z,21.53
2018-12-05T18:09:17.030Z,19.47
2018-12-05T18:11:44.791Z,19.73
2018-12-05T18:14:12.301Z,22.73
2018-12-05T18:16:40.159Z,31.30
2018-12-05T18:19:07.798Z,31.57
2018-12-05T18:21:35.322Z,25.03
2018-12-05T18:24:03.081Z,23.03
2018-12-05T18:26:30.781Z,26.93
2018-12-05T18:28:58.368Z,21.37
2018-12-05T18:31:26.077Z,21.33
2018-12-05T18:33:53.715Z,19.37
2018-12-05T18:36:21.323Z,21.50
2018-12-05T18:38:49.536Z,25.87
2018-12-05T18:41:17.831Z,20.20
2018-12-05T18:43:45.477Z,24.10
2018-12-05T18:46:12.870Z,32.90
2018-12-05T18:48:42.622Z,20.53
2018-12-05T18:51:10.544Z,31.93
2018-12-05T18:53:38.408Z,26.60
2018-12-05T18:56:07.467Z,23.90
2018-12-05T18:58:35.278Z,21.07
2018-12-05T19:01:03.766Z,28.27
2018-12-05T19:03:31.262Z,22.07
2018-12-05T19:05:58.892Z,20.70
2018-12-05T19:08:33.948Z,22.80
2018-12-05T19:10:56.045Z,22.73
2018-12-05T19:13:23.783Z,19.90
2018-12-05T19:15:51.281Z,20.37
2018-12-05T19:18:19.014Z,26.23
2018-12-05T19:20:46.547Z,20.30
2018-12-05T19:23:14.312Z,28.43
2018-12-05T19:25:41.947Z,22.83
2018-12-05T19:28:09.560Z,32.53
2018-12-05T19:30:37.133Z,23.93
2018-12-05T19:46:09.193Z,23.50
2018-12-05T19:48:39.928Z,22.07
2018-12-05T19:51:07.791Z,30.37
2018-12-05T19:53:35.375Z,21.30
2018-12-05T20:09:07.652Z,22.50
2018-12-05T20:11:36.159Z,21.13
2018-12-05T20:14:04.361Z,23.03
2018-12-05T20:16:31.880Z,20.23
2018-12-05T20:18:59.445Z,29.27
2018-12-05T20:21:27.337Z,19.87
2018-12-05T20:23:55.492Z,25.20
2018-12-05T20:26:23.050Z,21.13
2018-12-05T20:28:51.923Z,21.10
2018-12-05T20:31:19.672Z,25.83
2018-12-05T20:33:47.975Z,21.03
2018-12-05T20:36:15.591Z,21.70
2018-12-05T20:38:43.327Z,24.10
2018-12-05T20:41:10.955Z,23.50
2018-12-05T20:43:38.454Z,24.97
2018-12-05T20:46:06.107Z,24.67
2018-12-05T20:48:34.675Z,26.17
2018-12-05T20:51:02.242Z,22.87
2018-12-05T20:53:30.440Z,21.73
2018-12-05T20:55:58.043Z,21.13
2018-12-05T20:58:25.793Z,20.20
2018-12-05T21:00:53.833Z,24.47
2018-12-05T21:03:21.551Z,22.80
2018-12-05T21:05:49.306Z,20.43
2018-12-05T21:08:17.100Z,20.63
2018-12-05T21:10:44.629Z,24.10
2018-12-05T21:13:12.401Z,28.77
2018-12-05T21:15:40.120Z,25.90
2018-12-05T21:18:10.359Z,21.73
2018-12-05T21:20:37.787Z,23.30
2018-12-05T21:23:05.350Z,25.40
2018-12-05T21:25:32.800Z,21.73
2018-12-05T21:28:01.016Z,24.60
2018-12-05T21:30:28.635Z,38.13
2018-12-05T21:32:57.162Z,34.20
2018-12-05T21:35:24.888Z,19.97
2018-12-05T21:37:52.354Z,21.93
2018-12-05T21:40:19.969Z,27.97
2018-12-05T21:42:47.867Z,28.53
2018-12-05T21:45:15.302Z,40.00
2018-12-05T21:47:43.037Z,39.10
2018-12-05T21:50:10.455Z,32.50
2018-12-05T21:52:37.986Z,36.33
2018-12-05T21:55:06.310Z,21.23
2018-12-05T21:57:34.845Z,21.93
2018-12-05T22:00:02.946Z,22.23
2018-12-05T22:02:31.295Z,22.10
2018-12-05T22:04:58.924Z,26.77
2018-12-05T22:07:26.375Z,24.53
2018-12-05T22:09:53.955Z,23.97
2018-12-05T22:12:21.562Z,25.10
2018-12-05T22:14:49.195Z,21.60
2018-12-05T22:17:17.015Z,23.80
2018-12-05T22:19:44.630Z,24.53
2018-12-05T22:22:12.206Z,21.00
2018-12-05T22:24:39.698Z,22.93
2018-12-05T22:27:07.230Z,26.43
2018-12-05T22:29:34.835Z,26.13
2018-12-05T22:32:02.463Z,22.80
2018-12-05T22:34:30.617Z,28.93
2018-12-05T22:36:58.137Z,22.10
2018-12-05T22:39:25.698Z,22.60
2018-12-05T22:49:28.462Z,26.00
2018-12-05T22:51:56.064Z,20.50
2018-12-05T22:54:23.980Z,25.63
2018-12-05T22:56:57.337Z,27.50
2018-12-05T22:59:24.775Z,24.03
2018-12-05T23:01:52.582Z,21.97
2018-12-05T23:04:20.213Z,24.07
2018-12-05T23:06:47.879Z,20.63
2018-12-05T23:09:15.534Z,25.30
2018-12-05T23:11:42.998Z,27.53
2018-12-05T23:14:10.618Z,21.60
2018-12-05T23:16:38.181Z,26.87
2018-12-05T23:19:05.680Z,24.60
2018-12-05T23:21:33.223Z,25.43
2018-12-05T23:24:00.823Z,28.23
2018-12-05T23:26:28.308Z,22.87
2018-12-05T23:28:55.799Z,27.47
2018-12-05T23:31:23.450Z,28.90
2018-12-05T23:33:50.996Z,27.30
2018-12-05T23:36:18.527Z,26.67
2018-12-05T23:38:46.155Z,20.97
2018-12-05T23:41:13.680Z,20.80
2018-12-05T23:43:41.291Z,25.03
2018-12-05T23:46:08.943Z,22.10
2018-12-05T23:48:36.456Z,23.47
2018-12-05T23:51:04.762Z,21.60
2018-12-05T23:53:32.259Z,23.87
2018-12-05T23:55:59.870Z,23.33
2018-12-05T23:58:27.284Z,25.73
